sensor_id;sensor_type;location;lat;lon;timestamp;P1;durP1;ratioP1;P2;durP2;ratioP2
14251;SDS011;7210;51.502;10.722;2023-04-29T00:02:01;26.67;;;23.47;;
14251;SDS011;7210;51.502;10.722;2023-04-29T00:04:28;26.30;;;23.80;;
14251;SDS011;7210;51.502;10.722;2023-04-29T00:06:55;26.43;;;23.97;;
14251;SDS011;7210;51.502;10.722;2023-04-29T00:09:24;25.90;;;23.50;;
14251;SDS011;7210;51.502;10.722;2023-04-29T00:11:51;28.33;;;25.53;;
14251;SDS011;7210;51.502;10.722;2023-04-29T00:14:18;28.90;;;26.10;;
14251;SDS011;7210;51.502;10.722;2023-04-29T00:16:45;27.33;;;24.70;;
14251;SDS011;7210;51.502;10.722;2023-04-29T00:19:12;28.17;;;25.47;;
14251;SDS011;7210;51.502;10.722;2023-04-29T00:21:39;29.80;;;26.90;;
14251;SDS011;7210;51.502;10.722;2023-04-29T00:24:06;29.47;;;25.37;;
14251;SDS011;7210;51.502;10.722;2023-04-29T00:26:35;31.50;;;28.33;;
14251;SDS011;7210;51.502;10.722;2023-04-29T00:29:02;30.50;;;27.50;;
14251;SDS011;7210;51.502;10.722;2023-04-29T00:31:29;31.67;;;28.67;;
14251;SDS011;7210;51.502;10.722;2023-04-29T00:33:57;29.13;;;26.33;;
14251;SDS011;7210;51.502;10.722;2023-04-29T00:36:24;31.70;;;28.40;;
14251;SDS011;7210;51.502;10.722;2023-04-29T00:38:52;33.80;;;30.40;;
14251;SDS011;7210;51.502;10.722;2023-04-29T00:41:19;37.03;;;33.43;;
14251;SDS011;7210;51.502;10.722;2023-04-29T00:43:48;36.67;;;33.17;;
14251;SDS011;7210;51.502;10.722;2023-04-29T00:46:16;34.10;;;30.70;;
14251;SDS011;7210;51.502;10.722;2023-04-29T00:48:44;33.70;;;30.40;;
14251;SDS011;7210;51.502;10.722;2023-04-29T00:51:13;33.33;;;30.13;;
14251;SDS011;7210;51.502;10.722;2023-04-29T00:53:42;32.23;;;29.13;;
14251;SDS011;7210;51.502;10.722;2023-04-29T00:56:11;31.43;;;28.37;;
14251;SDS011;7210;51.502;10.722;2023-04-29T00:58:40;32.43;;;29.40;;
14251;SDS011;7210;51.502;10.722;2023-04-29T01:01:15;35.90;;;32.20;;
14251;SDS011;7210;51.502;10.722;2023-04-29T01:03:43;37.03;;;33.43;;
14251;SDS011;7210;51.502;10.722;2023-04-29T01:06:14;34.90;;;31.47;;
14251;SDS011;7210;51.502;10.722;2023-04-29T01:09:00;32.07;;;28.67;;
14251;SDS011;7210;51.502;10.722;2023-04-29T01:11:48;33.13;;;29.77;;
14251;SDS011;7210;51.502;10.722;2023-04-29T01:14:32;33.40;;;29.83;;
14251;SDS011;7210;51.502;10.722;2023-04-29T01:17:04;29.27;;;26.37;;
14251;SDS011;7210;51.502;10.722;2023-04-29T01:19:38;30.47;;;27.30;;
14251;SDS011;7210;51.502;10.722;2023-04-29T01:22:12;30.53;;;27.43;;
14251;SDS011;7210;51.502;10.722;2023-04-29T01:24:47;27.53;;;24.60;;
14251;SDS011;7210;51.502;10.722;2023-04-29T01:27:19;26.93;;;24.03;;
14251;SDS011;7210;51.502;10.722;2023-04-29T01:30:01;26.83;;;23.90;;
14251;SDS011;7210;51.502;10.722;2023-04-29T01:32:42;28.47;;;23.30;;
14251;SDS011;7210;51.502;10.722;2023-04-29T01:35:23;29.70;;;23.37;;
14251;SDS011;7210;51.502;10.722;2023-04-29T01:38:22;28.63;;;23.63;;
14251;SDS011;7210;51.502;10.722;2023-04-29T01:41:03;31.17;;;24.27;;
14251;SDS011;7210;51.502;10.722;2023-04-29T01:43:38;30.83;;;22.23;;
14251;SDS011;7210;51.502;10.722;2023-04-29T01:46:17;27.70;;;21.87;;
14251;SDS011;7210;51.502;10.722;2023-04-29T01:48:45;26.80;;;19.77;;
14251;SDS011;7210;51.502;10.722;2023-04-29T01:51:13;30.70;;;20.53;;
14251;SDS011;7210;51.502;10.722;2023-04-29T01:53:41;27.93;;;19.23;;
14251;SDS011;7210;51.502;10.722;2023-04-29T01:56:10;23.07;;;16.70;;
14251;SDS011;7210;51.502;10.722;2023-04-29T01:58:57;24.40;;;16.50;;
14251;SDS011;7210;51.502;10.722;2023-04-29T02:01:51;22.50;;;15.67;;
14251;SDS011;7210;51.502;10.722;2023-04-29T02:04:19;23.20;;;14.60;;
14251;SDS011;7210;51.502;10.722;2023-04-29T02:06:46;21.53;;;14.87;;
14251;SDS011;7210;51.502;10.722;2023-04-29T02:09:16;19.57;;;13.07;;
14251;SDS011;7210;51.502;10.722;2023-04-29T02:14:40;18.07;;;13.17;;
14251;SDS011;7210;51.502;10.722;2023-04-29T02:17:08;18.80;;;13.67;;
14251;SDS011;7210;51.502;10.722;2023-04-29T02:19:35;18.17;;;13.20;;
14251;SDS011;7210;51.502;10.722;2023-04-29T02:22:02;15.37;;;12.50;;
14251;SDS011;7210;51.502;10.722;2023-04-29T02:24:30;17.03;;;13.07;;
14251;SDS011;7210;51.502;10.722;2023-04-29T02:26:57;15.50;;;12.53;;
14251;SDS011;7210;51.502;10.722;2023-04-29T02:29:24;17.30;;;13.10;;
14251;SDS011;7210;51.502;10.722;2023-04-29T02:31:59;15.73;;;11.43;;
14251;SDS011;7210;51.502;10.722;2023-04-29T02:34:27;16.37;;;12.50;;
14251;SDS011;7210;51.502;10.722;2023-04-29T02:36:55;17.83;;;13.10;;
14251;SDS011;7210;51.502;10.722;2023-04-29T02:39:22;18.33;;;13.43;;
14251;SDS011;7210;51.502;10.722;2023-04-29T02:41:53;21.50;;;15.30;;
14251;SDS011;7210;51.502;10.722;2023-04-29T02:44:21;23.70;;;15.77;;
14251;SDS011;7210;51.502;10.722;2023-04-29T02:46:48;23.83;;;16.00;;
14251;SDS011;7210;51.502;10.722;2023-04-29T02:49:17;22.33;;;16.60;;
14251;SDS011;7210;51.502;10.722;2023-04-29T02:51:44;26.57;;;18.17;;
14251;SDS011;7210;51.502;10.722;2023-04-29T02:54:14;25.50;;;16.43;;
14251;SDS011;7210;51.502;10.722;2023-04-29T02:56:41;22.90;;;15.53;;
14251;SDS011;7210;51.502;10.722;2023-04-29T02:59:09;22.60;;;15.23;;
14251;SDS011;7210;51.502;10.722;2023-04-29T03:01:36;25.37;;;17.03;;
14251;SDS011;7210;51.502;10.722;2023-04-29T03:04:03;22.67;;;15.60;;
14251;SDS011;7210;51.502;10.722;2023-04-29T03:06:32;22.40;;;15.40;;
14251;SDS011;7210;51.502;10.722;2023-04-29T03:09:00;20.87;;;15.20;;
14251;SDS011;7210;51.502;10.722;2023-04-29T03:11:27;21.83;;;15.23;;
14251;SDS011;7210;51.502;10.722;2023-04-29T03:13:54;20.60;;;15.40;;
14251;SDS011;7210;51.502;10.722;2023-04-29T03:16:22;28.17;;;14.80;;
14251;SDS011;7210;51.502;10.722;2023-04-29T03:18:49;20.73;;;14.97;;
14251;SDS011;7210;51.502;10.722;2023-04-29T03:21:16;19.47;;;14.37;;
14251;SDS011;7210;51.502;10.722;2023-04-29T03:23:45;19.47;;;14.53;;
14251;SDS011;7210;51.502;10.722;2023-04-29T03:26:18;19.27;;;13.83;;
14251;SDS011;7210;51.502;10.722;2023-04-29T03:28:46;21.17;;;15.33;;
14251;SDS011;7210;51.502;10.722;2023-04-29T03:31:13;20.17;;;15.43;;
14251;SDS011;7210;51.502;10.722;2023-04-29T03:33:41;20.03;;;14.37;;
14251;SDS011;7210;51.502;10.722;2023-04-29T03:36:08;22.10;;;15.80;;
14251;SDS011;7210;51.502;10.722;2023-04-29T03:38:39;21.57;;;15.70;;
14251;SDS011;7210;51.502;10.722;2023-04-29T03:41:08;20.63;;;16.17;;
14251;SDS011;7210;51.502;10.722;2023-04-29T03:43:36;24.20;;;17.43;;
14251;SDS011;7210;51.502;10.722;2023-04-29T03:46:03;25.40;;;16.63;;
14251;SDS011;7210;51.502;10.722;2023-04-29T03:48:30;24.17;;;17.40;;
14251;SDS011;7210;51.502;10.722;2023-04-29T03:50:57;23.37;;;17.13;;
14251;SDS011;7210;51.502;10.722;2023-04-29T03:53:25;22.70;;;16.13;;
14251;SDS011;7210;51.502;10.722;2023-04-29T03:55:53;22.57;;;17.80;;
14251;SDS011;7210;51.502;10.722;2023-04-29T03:58:21;23.17;;;17.30;;
14251;SDS011;7210;51.502;10.722;2023-04-29T04:00:50;21.73;;;17.00;;
14251;SDS011;7210;51.502;10.722;2023-04-29T04:03:21;23.33;;;17.20;;
14251;SDS011;7210;51.502;10.722;2023-04-29T04:05:50;21.87;;;17.07;;
14251;SDS011;7210;51.502;10.722;2023-04-29T04:08:17;23.27;;;17.50;;
14251;SDS011;7210;51.502;10.722;2023-04-29T04:10:55;22.80;;;16.47;;
14251;SDS011;7210;51.502;10.722;2023-04-29T04:13:43;23.77;;;17.97;;
14251;SDS011;7210;51.502;10.722;2023-04-29T04:16:11;21.20;;;15.80;;
14251;SDS011;7210;51.502;10.722;2023-04-29T04:18:38;19.80;;;15.77;;
14251;SDS011;7210;51.502;10.722;2023-04-29T04:21:06;18.50;;;15.10;;
14251;SDS011;7210;51.502;10.722;2023-04-29T04:23:35;18.80;;;15.47;;
14251;SDS011;7210;51.502;10.722;2023-04-29T04:26:05;19.93;;;14.50;;
14251;SDS011;7210;51.502;10.722;2023-04-29T04:28:54;17.87;;;14.83;;
14251;SDS011;7210;51.502;10.722;2023-04-29T04:31:31;17.93;;;15.03;;
14251;SDS011;7210;51.502;10.722;2023-04-29T04:33:58;16.00;;;13.23;;
14251;SDS011;7210;51.502;10.722;2023-04-29T04:36:28;17.10;;;13.63;;
14251;SDS011;7210;51.502;10.722;2023-04-29T04:38:56;15.77;;;13.27;;
14251;SDS011;7210;51.502;10.722;2023-04-29T04:41:24;15.10;;;12.67;;
14251;SDS011;7210;51.502;10.722;2023-04-29T04:43:52;15.30;;;13.23;;
14251;SDS011;7210;51.502;10.722;2023-04-29T04:46:38;16.77;;;13.73;;
14251;SDS011;7210;51.502;10.722;2023-04-29T04:49:32;17.10;;;14.30;;
14251;SDS011;7210;51.502;10.722;2023-04-29T04:52:00;17.13;;;14.37;;
14251;SDS011;7210;51.502;10.722;2023-04-29T04:54:27;18.70;;;15.10;;
14251;SDS011;7210;51.502;10.722;2023-04-29T04:57:04;19.57;;;15.70;;
14251;SDS011;7210;51.502;10.722;2023-04-29T04:59:31;19.43;;;16.47;;
14251;SDS011;7210;51.502;10.722;2023-04-29T05:02:00;20.03;;;16.60;;
14251;SDS011;7210;51.502;10.722;2023-04-29T05:04:28;20.77;;;17.50;;
14251;SDS011;7210;51.502;10.722;2023-04-29T05:06:55;23.00;;;17.70;;
14251;SDS011;7210;51.502;10.722;2023-04-29T05:09:26;20.93;;;17.00;;
14251;SDS011;7210;51.502;10.722;2023-04-29T05:11:54;24.33;;;19.53;;
14251;SDS011;7210;51.502;10.722;2023-04-29T05:14:24;25.13;;;19.43;;
14251;SDS011;7210;51.502;10.722;2023-04-29T05:16:51;25.13;;;18.97;;
14251;SDS011;7210;51.502;10.722;2023-04-29T05:19:20;26.80;;;19.03;;
14251;SDS011;7210;51.502;10.722;2023-04-29T05:21:48;25.00;;;19.37;;
14251;SDS011;7210;51.502;10.722;2023-04-29T05:24:16;24.67;;;19.10;;
14251;SDS011;7210;51.502;10.722;2023-04-29T05:26:44;29.83;;;22.07;;
14251;SDS011;7210;51.502;10.722;2023-04-29T05:29:11;26.83;;;20.20;;
14251;SDS011;7210;51.502;10.722;2023-04-29T05:31:48;28.87;;;20.77;;
14251;SDS011;7210;51.502;10.722;2023-04-29T05:34:17;25.40;;;19.60;;
14251;SDS011;7210;51.502;10.722;2023-04-29T05:36:45;26.40;;;21.00;;
14251;SDS011;7210;51.502;10.722;2023-04-29T05:39:13;26.07;;;20.73;;
14251;SDS011;7210;51.502;10.722;2023-04-29T05:41:41;28.10;;;20.50;;
14251;SDS011;7210;51.502;10.722;2023-04-29T05:44:16;27.60;;;20.13;;
14251;SDS011;7210;51.502;10.722;2023-04-29T05:46:44;27.20;;;20.47;;
14251;SDS011;7210;51.502;10.722;2023-04-29T05:49:16;27.60;;;20.70;;
14251;SDS011;7210;51.502;10.722;2023-04-29T05:51:43;33.23;;;23.33;;
14251;SDS011;7210;51.502;10.722;2023-04-29T05:54:12;27.87;;;21.40;;
14251;SDS011;7210;51.502;10.722;2023-04-29T05:56:40;29.90;;;20.90;;
14251;SDS011;7210;51.502;10.722;2023-04-29T05:59:08;29.60;;;22.50;;
14251;SDS011;7210;51.502;10.722;2023-04-29T06:01:35;28.67;;;21.40;;
14251;SDS011;7210;51.502;10.722;2023-04-29T06:04:03;27.77;;;21.37;;
14251;SDS011;7210;51.502;10.722;2023-04-29T06:06:58;26.23;;;21.17;;
14251;SDS011;7210;51.502;10.722;2023-04-29T06:09:43;25.77;;;19.10;;
14251;SDS011;7210;51.502;10.722;2023-04-29T06:12:10;28.23;;;20.83;;
14251;SDS011;7210;51.502;10.722;2023-04-29T06:14:40;28.50;;;19.83;;
14251;SDS011;7210;51.502;10.722;2023-04-29T06:17:08;25.33;;;19.40;;
14251;SDS011;7210;51.502;10.722;2023-04-29T06:19:40;24.40;;;18.73;;
14251;SDS011;7210;51.502;10.722;2023-04-29T06:22:09;27.17;;;19.50;;
14251;SDS011;7210;51.502;10.722;2023-04-29T06:24:41;26.53;;;18.73;;
14251;SDS011;7210;51.502;10.722;2023-04-29T06:27:10;28.50;;;19.83;;
14251;SDS011;7210;51.502;10.722;2023-04-29T06:29:37;25.90;;;18.87;;
14251;SDS011;7210;51.502;10.722;2023-04-29T06:32:05;25.03;;;17.67;;
14251;SDS011;7210;51.502;10.722;2023-04-29T06:34:32;26.57;;;18.70;;
14251;SDS011;7210;51.502;10.722;2023-04-29T06:37:21;23.67;;;17.53;;
14251;SDS011;7210;51.502;10.722;2023-04-29T06:40:07;22.90;;;17.60;;
14251;SDS011;7210;51.502;10.722;2023-04-29T06:42:54;23.90;;;17.07;;
14251;SDS011;7210;51.502;10.722;2023-04-29T06:45:49;25.77;;;18.57;;
14251;SDS011;7210;51.502;10.722;2023-04-29T06:48:20;22.67;;;16.87;;
14251;SDS011;7210;51.502;10.722;2023-04-29T06:50:48;22.37;;;16.33;;
14251;SDS011;7210;51.502;10.722;2023-04-29T06:53:17;25.20;;;16.80;;
14251;SDS011;7210;51.502;10.722;2023-04-29T06:55:45;21.50;;;16.30;;
14251;SDS011;7210;51.502;10.722;2023-04-29T06:58:12;23.80;;;16.40;;
14251;SDS011;7210;51.502;10.722;2023-04-29T07:00:43;20.10;;;16.27;;
14251;SDS011;7210;51.502;10.722;2023-04-29T07:03:11;20.97;;;17.03;;
14251;SDS011;7210;51.502;10.722;2023-04-29T07:05:39;18.63;;;15.50;;
14251;SDS011;7210;51.502;10.722;2023-04-29T07:08:09;19.70;;;16.17;;
14251;SDS011;7210;51.502;10.722;2023-04-29T07:10:39;18.97;;;15.53;;
14251;SDS011;7210;51.502;10.722;2023-04-29T07:13:06;19.77;;;15.07;;
14251;SDS011;7210;51.502;10.722;2023-04-29T07:15:34;18.53;;;15.50;;
14251;SDS011;7210;51.502;10.722;2023-04-29T07:18:03;17.13;;;14.47;;
14251;SDS011;7210;51.502;10.722;2023-04-29T07:20:30;18.20;;;15.27;;
14251;SDS011;7210;51.502;10.722;2023-04-29T07:22:58;16.77;;;14.83;;
14251;SDS011;7210;51.502;10.722;2023-04-29T07:25:25;17.53;;;14.00;;
14251;SDS011;7210;51.502;10.722;2023-04-29T07:27:55;14.90;;;13.13;;
14251;SDS011;7210;51.502;10.722;2023-04-29T07:30:24;15.47;;;13.50;;
14251;SDS011;7210;51.502;10.722;2023-04-29T07:32:51;15.03;;;13.43;;
14251;SDS011;7210;51.502;10.722;2023-04-29T07:35:19;14.93;;;13.33;;
14251;SDS011;7210;51.502;10.722;2023-04-29T07:37:46;14.00;;;12.50;;
14251;SDS011;7210;51.502;10.722;2023-04-29T07:40:14;13.60;;;12.17;;
14251;SDS011;7210;51.502;10.722;2023-04-29T07:42:42;13.77;;;10.93;;
14251;SDS011;7210;51.502;10.722;2023-04-29T07:45:11;12.30;;;11.10;;
14251;SDS011;7210;51.502;10.722;2023-04-29T07:47:39;13.00;;;11.70;;
14251;SDS011;7210;51.502;10.722;2023-04-29T07:50:06;12.50;;;11.30;;
14251;SDS011;7210;51.502;10.722;2023-04-29T07:52:40;12.53;;;11.33;;
14251;SDS011;7210;51.502;10.722;2023-04-29T07:55:07;14.50;;;12.07;;
14251;SDS011;7210;51.502;10.722;2023-04-29T07:57:35;13.60;;;12.30;;
14251;SDS011;7210;51.502;10.722;2023-04-29T08:00:02;13.60;;;12.23;;
14251;SDS011;7210;51.502;10.722;2023-04-29T08:02:41;13.87;;;12.50;;
14251;SDS011;7210;51.502;10.722;2023-04-29T08:05:11;12.90;;;11.70;;
14251;SDS011;7210;51.502;10.722;2023-04-29T08:07:39;13.13;;;11.90;;
14251;SDS011;7210;51.502;10.722;2023-04-29T08:10:06;12.60;;;11.40;;
14251;SDS011;7210;51.502;10.722;2023-04-29T08:12:36;12.80;;;11.60;;
14251;SDS011;7210;51.502;10.722;2023-04-29T08:15:03;13.80;;;12.50;;
14251;SDS011;7210;51.502;10.722;2023-04-29T08:17:32;13.90;;;12.50;;
14251;SDS011;7210;51.502;10.722;2023-04-29T08:20:00;14.13;;;12.70;;
14251;SDS011;7210;51.502;10.722;2023-04-29T08:22:27;14.67;;;13.17;;
14251;SDS011;7210;51.502;10.722;2023-04-29T08:24:55;15.80;;;14.20;;
14251;SDS011;7210;51.502;10.722;2023-04-29T08:27:22;15.63;;;14.13;;
14251;SDS011;7210;51.502;10.722;2023-04-29T08:29:50;15.27;;;13.77;;
14251;SDS011;7210;51.502;10.722;2023-04-29T08:32:17;15.93;;;14.43;;
14251;SDS011;7210;51.502;10.722;2023-04-29T08:34:45;16.57;;;14.87;;
14251;SDS011;7210;51.502;10.722;2023-04-29T08:37:17;16.27;;;14.57;;
14251;SDS011;7210;51.502;10.722;2023-04-29T08:39:45;18.37;;;16.47;;
14251;SDS011;7210;51.502;10.722;2023-04-29T08:42:13;17.77;;;15.97;;
14251;SDS011;7210;51.502;10.722;2023-04-29T08:44:40;18.83;;;16.83;;
14251;SDS011;7210;51.502;10.722;2023-04-29T08:47:08;19.23;;;17.27;;
14251;SDS011;7210;51.502;10.722;2023-04-29T08:49:36;19.10;;;16.97;;
14251;SDS011;7210;51.502;10.722;2023-04-29T08:52:03;18.60;;;16.60;;
14251;SDS011;7210;51.502;10.722;2023-04-29T08:54:32;18.93;;;17.03;;
14251;SDS011;7210;51.502;10.722;2023-04-29T08:57:00;20.60;;;17.20;;
14251;SDS011;7210;51.502;10.722;2023-04-29T08:59:28;19.50;;;17.40;;
14251;SDS011;7210;51.502;10.722;2023-04-29T09:01:57;21.43;;;19.03;;
14251;SDS011;7210;51.502;10.722;2023-04-29T09:04:29;21.33;;;19.13;;
14251;SDS011;7210;51.502;10.722;2023-04-29T09:07:07;21.43;;;19.13;;
14251;SDS011;7210;51.502;10.722;2023-04-29T09:09:38;21.73;;;19.30;;
14251;SDS011;7210;51.502;10.722;2023-04-29T09:12:07;22.87;;;20.40;;
14251;SDS011;7210;51.502;10.722;2023-04-29T09:14:34;24.23;;;21.37;;
14251;SDS011;7210;51.502;10.722;2023-04-29T09:17:02;24.23;;;21.27;;
14251;SDS011;7210;51.502;10.722;2023-04-29T09:19:29;24.20;;;21.30;;
14251;SDS011;7210;51.502;10.722;2023-04-29T09:21:58;24.80;;;21.90;;
14251;SDS011;7210;51.502;10.722;2023-04-29T09:24:26;25.20;;;20.60;;
14251;SDS011;7210;51.502;10.722;2023-04-29T09:26:57;23.77;;;20.97;;
14251;SDS011;7210;51.502;10.722;2023-04-29T09:29:25;22.93;;;19.70;;
14251;SDS011;7210;51.502;10.722;2023-04-29T09:31:53;22.83;;;19.73;;
14251;SDS011;7210;51.502;10.722;2023-04-29T09:34:32;25.47;;;22.67;;
14251;SDS011;7210;51.502;10.722;2023-04-29T09:37:02;25.73;;;21.50;;
14251;SDS011;7210;51.502;10.722;2023-04-29T09:39:48;24.60;;;21.30;;
14251;SDS011;7210;51.502;10.722;2023-04-29T09:42:16;22.23;;;19.23;;
14251;SDS011;7210;51.502;10.722;2023-04-29T09:44:43;22.57;;;19.73;;
14251;SDS011;7210;51.502;10.722;2023-04-29T09:47:11;21.73;;;19.40;;
14251;SDS011;7210;51.502;10.722;2023-04-29T09:49:40;23.17;;;20.27;;
14251;SDS011;7210;51.502;10.722;2023-04-29T09:52:10;22.90;;;20.43;;
14251;SDS011;7210;51.502;10.722;2023-04-29T09:54:41;24.17;;;19.30;;
14251;SDS011;7210;51.502;10.722;2023-04-29T09:57:10;20.13;;;18.03;;
14251;SDS011;7210;51.502;10.722;2023-04-29T09:59:40;20.50;;;18.27;;
14251;SDS011;7210;51.502;10.722;2023-04-29T10:02:09;22.77;;;20.37;;
14251;SDS011;7210;51.502;10.722;2023-04-29T10:04:43;19.90;;;17.83;;
14251;SDS011;7210;51.502;10.722;2023-04-29T10:07:13;15.60;;;14.00;;
14251;SDS011;7210;51.502;10.722;2023-04-29T10:09:42;14.20;;;12.80;;
14251;SDS011;7210;51.502;10.722;2023-04-29T10:12:12;13.23;;;11.93;;
14251;SDS011;7210;51.502;10.722;2023-04-29T10:14:46;13.63;;;12.27;;
14251;SDS011;7210;51.502;10.722;2023-04-29T10:17:23;12.00;;;10.73;;
14251;SDS011;7210;51.502;10.722;2023-04-29T10:20:05;12.70;;;11.40;;
14251;SDS011;7210;51.502;10.722;2023-04-29T10:22:38;11.50;;;10.30;;
14251;SDS011;7210;51.502;10.722;2023-04-29T10:25:17;11.60;;;10.47;;
14251;SDS011;7210;51.502;10.722;2023-04-29T10:27:46;10.93;;;9.90;;
14251;SDS011;7210;51.502;10.722;2023-04-29T10:30:18;11.73;;;10.63;;
14251;SDS011;7210;51.502;10.722;2023-04-29T10:32:47;10.67;;;9.67;;
14251;SDS011;7210;51.502;10.722;2023-04-29T10:35:16;10.90;;;9.80;;
14251;SDS011;7210;51.502;10.722;2023-04-29T10:37:47;11.13;;;10.13;;
14251;SDS011;7210;51.502;10.722;2023-04-29T10:40:16;10.27;;;9.37;;
14251;SDS011;7210;51.502;10.722;2023-04-29T10:42:48;10.90;;;9.80;;
14251;SDS011;7210;51.502;10.722;2023-04-29T10:45:19;10.60;;;9.70;;
14251;SDS011;7210;51.502;10.722;2023-04-29T10:48:08;11.97;;;9.47;;
14251;SDS011;7210;51.502;10.722;2023-04-29T10:53:27;10.63;;;9.67;;
14251;SDS011;7210;51.502;10.722;2023-04-29T10:55:56;10.33;;;9.33;;
14251;SDS011;7210;51.502;10.722;2023-04-29T10:58:33;10.00;;;9.00;;
14251;SDS011;7210;51.502;10.722;2023-04-29T11:01:10;9.93;;;9.03;;
14251;SDS011;7210;51.502;10.722;2023-04-29T11:03:45;10.13;;;9.23;;
14251;SDS011;7210;51.502;10.722;2023-04-29T11:06:23;8.23;;;7.53;;
14251;SDS011;7210;51.502;10.722;2023-04-29T11:09:06;7.47;;;6.80;;
14251;SDS011;7210;51.502;10.722;2023-04-29T11:11:43;7.83;;;7.03;;
14251;SDS011;7210;51.502;10.722;2023-04-29T11:14:23;7.07;;;6.47;;
14251;SDS011;7210;51.502;10.722;2023-04-29T11:16:55;8.37;;;7.00;;
14251;SDS011;7210;51.502;10.722;2023-04-29T11:19:24;6.93;;;6.33;;
14251;SDS011;7210;51.502;10.722;2023-04-29T11:22:07;7.43;;;6.77;;
14251;SDS011;7210;51.502;10.722;2023-04-29T11:24:53;7.63;;;6.83;;
14251;SDS011;7210;51.502;10.722;2023-04-29T11:27:23;7.00;;;6.37;;
14251;SDS011;7210;51.502;10.722;2023-04-29T11:29:52;7.70;;;6.97;;
14251;SDS011;7210;51.502;10.722;2023-04-29T11:32:24;7.93;;;7.17;;
14251;SDS011;7210;51.502;10.722;2023-04-29T11:34:52;9.37;;;7.80;;
14251;SDS011;7210;51.502;10.722;2023-04-29T11:37:20;9.70;;;8.00;;
14251;SDS011;7210;51.502;10.722;2023-04-29T11:39:57;10.13;;;8.37;;
14251;SDS011;7210;51.502;10.722;2023-04-29T11:42:26;8.00;;;7.30;;
14251;SDS011;7210;51.502;10.722;2023-04-29T11:44:53;8.80;;;8.00;;
14251;SDS011;7210;51.502;10.722;2023-04-29T11:47:26;8.83;;;7.93;;
14251;SDS011;7210;51.502;10.722;2023-04-29T11:50:01;9.00;;;8.17;;
14251;SDS011;7210;51.502;10.722;2023-04-29T11:52:31;10.20;;;9.20;;
14251;SDS011;7210;51.502;10.722;2023-04-29T11:55:00;9.77;;;8.87;;
14251;SDS011;7210;51.502;10.722;2023-04-29T11:57:29;9.83;;;9.03;;
14251;SDS011;7210;51.502;10.722;2023-04-29T11:59:56;10.80;;;9.80;;
14251;SDS011;7210;51.502;10.722;2023-04-29T12:02:29;11.27;;;10.23;;
14251;SDS011;7210;51.502;10.722;2023-04-29T12:04:56;11.60;;;10.40;;
14251;SDS011;7210;51.502;10.722;2023-04-29T12:07:25;16.13;;;14.60;;
14251;SDS011;7210;51.502;10.722;2023-04-29T12:09:53;10.50;;;9.40;;
14251;SDS011;7210;51.502;10.722;2023-04-29T12:12:22;10.10;;;9.20;;
14251;SDS011;7210;51.502;10.722;2023-04-29T12:14:49;9.37;;;8.60;;
14251;SDS011;7210;51.502;10.722;2023-04-29T12:17:17;10.37;;;9.57;;
14251;SDS011;7210;51.502;10.722;2023-04-29T12:19:46;9.40;;;8.60;;
14251;SDS011;7210;51.502;10.722;2023-04-29T12:22:14;9.63;;;8.80;;
14251;SDS011;7210;51.502;10.722;2023-04-29T12:24:41;8.97;;;8.13;;
14251;SDS011;7210;51.502;10.722;2023-04-29T12:27:08;8.00;;;7.40;;
14251;SDS011;7210;51.502;10.722;2023-04-29T12:29:36;7.93;;;7.33;;
14251;SDS011;7210;51.502;10.722;2023-04-29T12:32:05;8.90;;;8.00;;
14251;SDS011;7210;51.502;10.722;2023-04-29T12:34:33;9.53;;;8.77;;
14251;SDS011;7210;51.502;10.722;2023-04-29T12:37:02;9.30;;;8.40;;
14251;SDS011;7210;51.502;10.722;2023-04-29T12:39:29;9.40;;;8.50;;
14251;SDS011;7210;51.502;10.722;2023-04-29T12:41:57;15.63;;;10.57;;
14251;SDS011;7210;51.502;10.722;2023-04-29T12:44:33;10.87;;;9.87;;
14251;SDS011;7210;51.502;10.722;2023-04-29T12:47:06;11.50;;;10.33;;
14251;SDS011;7210;51.502;10.722;2023-04-29T12:49:34;11.87;;;10.77;;
14251;SDS011;7210;51.502;10.722;2023-04-29T12:52:04;11.13;;;10.20;;
14251;SDS011;7210;51.502;10.722;2023-04-29T12:54:33;11.80;;;10.60;;
14251;SDS011;7210;51.502;10.722;2023-04-29T12:57:01;13.23;;;10.03;;
14251;SDS011;7210;51.502;10.722;2023-04-29T12:59:29;10.43;;;9.43;;
14251;SDS011;7210;51.502;10.722;2023-04-29T13:01:56;10.43;;;9.33;;
14251;SDS011;7210;51.502;10.722;2023-04-29T13:04:23;8.83;;;8.03;;
14251;SDS011;7210;51.502;10.722;2023-04-29T13:06:50;10.83;;;9.10;;
14251;SDS011;7210;51.502;10.722;2023-04-29T13:09:25;11.10;;;8.13;;
14251;SDS011;7210;51.502;10.722;2023-04-29T13:11:52;11.40;;;8.73;;
14251;SDS011;7210;51.502;10.722;2023-04-29T13:14:20;9.13;;;8.33;;
14251;SDS011;7210;51.502;10.722;2023-04-29T13:16:47;10.70;;;9.60;;
14251;SDS011;7210;51.502;10.722;2023-04-29T13:19:14;11.43;;;10.33;;
14251;SDS011;7210;51.502;10.722;2023-04-29T13:21:46;12.27;;;10.23;;
14251;SDS011;7210;51.502;10.722;2023-04-29T13:24:14;12.67;;;11.33;;
14251;SDS011;7210;51.502;10.722;2023-04-29T13:26:45;11.67;;;10.63;;
14251;SDS011;7210;51.502;10.722;2023-04-29T13:29:13;11.97;;;10.67;;
14251;SDS011;7210;51.502;10.722;2023-04-29T13:31:40;11.13;;;10.03;;
14251;SDS011;7210;51.502;10.722;2023-04-29T13:34:08;11.80;;;10.60;;
14251;SDS011;7210;51.502;10.722;2023-04-29T13:36:35;11.17;;;9.87;;
14251;SDS011;7210;51.502;10.722;2023-04-29T13:39:02;10.40;;;9.50;;
14251;SDS011;7210;51.502;10.722;2023-04-29T13:41:29;9.90;;;9.00;;
14251;SDS011;7210;51.502;10.722;2023-04-29T13:44:00;11.00;;;10.00;;
14251;SDS011;7210;51.502;10.722;2023-04-29T13:46:27;10.17;;;9.23;;
14251;SDS011;7210;51.502;10.722;2023-04-29T13:48:56;11.33;;;10.23;;
14251;SDS011;7210;51.502;10.722;2023-04-29T13:51:24;10.27;;;9.33;;
14251;SDS011;7210;51.502;10.722;2023-04-29T13:53:51;10.63;;;9.53;;
14251;SDS011;7210;51.502;10.722;2023-04-29T13:56:18;9.80;;;8.80;;
14251;SDS011;7210;51.502;10.722;2023-04-29T13:58:46;9.30;;;8.40;;
14251;SDS011;7210;51.502;10.722;2023-04-29T14:01:15;9.87;;;8.87;;
14251;SDS011;7210;51.502;10.722;2023-04-29T14:03:43;9.27;;;8.47;;
14251;SDS011;7210;51.502;10.722;2023-04-29T14:06:10;9.37;;;8.40;;
14251;SDS011;7210;51.502;10.722;2023-04-29T14:08:37;7.90;;;7.13;;
14251;SDS011;7210;51.502;10.722;2023-04-29T14:11:05;8.83;;;7.93;;
14251;SDS011;7210;51.502;10.722;2023-04-29T14:13:32;8.03;;;7.10;;
14251;SDS011;7210;51.502;10.722;2023-04-29T14:15:59;7.80;;;7.20;;
14251;SDS011;7210;51.502;10.722;2023-04-29T14:18:29;10.00;;;7.43;;
14251;SDS011;7210;51.502;10.722;2023-04-29T14:20:56;8.93;;;7.10;;
14251;SDS011;7210;51.502;10.722;2023-04-29T14:23:24;7.27;;;6.53;;
14251;SDS011;7210;51.502;10.722;2023-04-29T14:25:51;9.87;;;7.20;;
14251;SDS011;7210;51.502;10.722;2023-04-29T14:28:19;9.23;;;7.90;;
14251;SDS011;7210;51.502;10.722;2023-04-29T14:30:46;9.60;;;8.13;;
14251;SDS011;7210;51.502;10.722;2023-04-29T14:33:13;8.10;;;7.30;;
14251;SDS011;7210;51.502;10.722;2023-04-29T14:35:41;7.97;;;7.27;;
14251;SDS011;7210;51.502;10.722;2023-04-29T14:38:08;9.10;;;7.70;;
14251;SDS011;7210;51.502;10.722;2023-04-29T14:40:36;9.43;;;7.23;;
14251;SDS011;7210;51.502;10.722;2023-04-29T14:43:03;10.10;;;7.47;;
14251;SDS011;7210;51.502;10.722;2023-04-29T14:45:30;18.17;;;8.73;;
14251;SDS011;7210;51.502;10.722;2023-04-29T14:47:57;12.13;;;7.43;;
14251;SDS011;7210;51.502;10.722;2023-04-29T14:50:25;8.87;;;8.00;;